createdAt,value
2016-12-17T00:00:12.167Z,1035.3
2016-12-17T00:00:37.730Z,1035.32
2016-12-17T00:01:03.317Z,1035.35
2016-12-17T00:01:28.861Z,1035.31
2016-12-17T05:01:05.101Z,1035.75
2016-12-17T05:01:30.678Z,1035.74
2016-12-17T05:01:56.252Z,1035.76
2016-12-17T05:02:21.821Z,1035.77
2016-12-17T05:02:47.407Z,1035.81
2016-12-17T05:03:12.987Z,1035.75
2016-12-17T05:03:38.576Z,1035.74
2016-12-17T05:04:04.143Z,1035.75
2016-12-17T05:04:29.699Z,1035.73
2016-12-17T05:04:55.260Z,1035.71
2016-12-17T05:05:20.816Z,1035.67
2016-12-17T05:05:46.393Z,1035.69
2016-12-17T05:06:11.964Z,1035.7
2016-12-17T05:06:37.520Z,1035.72
2016-12-17T05:07:03.123Z,1035.76
2016-12-17T05:07:28.701Z,1035.75
2016-12-17T05:07:54.258Z,1035.79
2016-12-17T05:08:19.847Z,1035.74
2016-12-17T05:08:45.411Z,1035.76
2016-12-17T05:09:11.066Z,1035.76
2016-12-17T05:09:36.635Z,1035.76
2016-12-17T05:10:02.320Z,1035.74
2016-12-17T05:10:27.955Z,1035.78
2016-12-17T05:10:53.519Z,1035.76
2016-12-17T05:11:19.127Z,1035.76
2016-12-17T05:11:44.682Z,1035.76
2016-12-17T05:12:10.247Z,1035.79
2016-12-17T05:12:35.832Z,1035.77
2016-12-17T05:13:01.403Z,1035.77
2016-12-17T05:13:26.959Z,1035.79
2016-12-17T05:13:52.555Z,1035.72
2016-12-17T05:14:18.141Z,1035.75
2016-12-17T05:14:45.268Z,1035.71
2016-12-17T05:15:16.367Z,1035.72
2016-12-17T05:15:43.404Z,1035.73
2016-12-17T05:16:09.583Z,1035.72
2016-12-17T05:16:35.205Z,1035.73
2016-12-17T05:17:01.376Z,1035.74
2016-12-17T05:17:27.050Z,1035.76
2016-12-17T05:17:52.586Z,1035.76
2016-12-17T05:18:18.154Z,1035.81
2016-12-17T05:18:43.715Z,1035.85
2016-12-17T05:19:09.290Z,1035.8
2016-12-17T05:19:34.855Z,1035.82
2016-12-17T05:20:00.424Z,1035.78
2016-12-17T05:20:26.060Z,1035.76
2016-12-17T05:20:51.677Z,1035.73
2016-12-17T05:21:17.239Z,1035.77
2016-12-17T05:21:42.803Z,1035.74
2016-12-17T05:22:08.368Z,1035.73
2016-12-17T05:22:34.002Z,1035.71
2016-12-17T05:22:59.570Z,1035.7
2016-12-17T05:23:25.189Z,1035.72
2016-12-17T05:23:50.740Z,1035.67
2016-12-17T05:24:16.306Z,1035.71
2016-12-17T05:24:41.887Z,1035.66
2016-12-17T05:25:07.445Z,1035.65
2016-12-17T05:25:33.047Z,1035.65
2016-12-17T05:25:58.706Z,1035.69
2016-12-17T05:26:24.276Z,1035.67
2016-12-17T05:26:49.834Z,1035.71
2016-12-17T05:27:15.442Z,1035.74
2016-12-17T05:27:41.071Z,1035.77
2016-12-17T05:28:06.636Z,1035.74
2016-12-17T05:28:32.202Z,1035.75
2016-12-17T05:28:57.826Z,1035.72
2016-12-17T05:29:23.386Z,1035.74
2016-12-17T05:29:48.956Z,1035.7
2016-12-17T05:30:14.655Z,1035.67
2016-12-17T05:30:40.189Z,1035.7
2016-12-17T05:31:05.756Z,1035.66
2016-12-17T05:31:31.319Z,1035.67
2016-12-17T05:31:56.897Z,1035.72
2016-12-17T05:32:22.460Z,1035.72
2016-12-17T05:32:48.038Z,1035.72
2016-12-17T05:33:13.596Z,1035.72
2016-12-17T05:33:39.153Z,1035.78
2016-12-17T05:34:04.830Z,1035.79
2016-12-17T05:34:30.391Z,1035.81
2016-12-17T05:34:55.975Z,1035.84
2016-12-17T05:35:21.615Z,1035.85
2016-12-17T05:35:47.233Z,1035.88
2016-12-17T05:36:12.797Z,1035.9
2016-12-17T05:36:38.365Z,1035.87
2016-12-17T05:37:04.036Z,1035.85
2016-12-17T05:37:29.580Z,1035.85
2016-12-17T05:37:55.229Z,1035.88
2016-12-17T05:38:20.838Z,1035.84
2016-12-17T05:38:46.417Z,1035.86
2016-12-17T05:39:11.971Z,1035.82
2016-12-17T05:39:37.527Z,1035.81
2016-12-17T05:40:03.094Z,1035.79
2016-12-17T05:40:28.678Z,1035.74
2016-12-17T05:40:54.244Z,1035.77
2016-12-17T05:41:19.806Z,1035.8
2016-12-17T05:41:45.391Z,1035.79
2016-12-17T05:42:10.986Z,1035.82
2016-12-17T05:42:36.550Z,1035.82
2016-12-17T05:43:02.126Z,1035.89
2016-12-17T05:43:27.820Z,1035.91
2016-12-17T05:43:53.401Z,1035.96
2016-12-17T05:44:19.868Z,1035.99
2016-12-17T05:44:45.431Z,1036.03
2016-12-17T05:45:10.998Z,1036.05
2016-12-17T05:45:36.561Z,1036.07
2016-12-17T05:46:02.195Z,1036.04
2016-12-17T05:46:27.769Z,1036.02
2016-12-17T05:46:53.347Z,1035.99
2016-12-17T05:47:18.966Z,1036
2016-12-17T05:47:44.624Z,1036
2016-12-17T05:48:10.175Z,1036.05
2016-12-17T05:48:35.715Z,1036.06
2016-12-17T05:49:01.387Z,1036.1
2016-12-17T05:49:26.974Z,1036.09
2016-12-17T05:49:52.539Z,1036.06
2016-12-17T05:50:18.114Z,1036.05
2016-12-17T05:50:43.773Z,1036.03
2016-12-17T05:51:09.339Z,1036.04
2016-12-17T05:51:34.896Z,1036.13
2016-12-17T05:52:00.548Z,1036.11
2016-12-17T05:52:26.218Z,1036.18
2016-12-17T05:52:51.777Z,1036.18
2016-12-17T05:53:17.348Z,1036.19
2016-12-17T05:53:43.007Z,1036.18
2016-12-17T05:54:08.587Z,1036.19
2016-12-17T05:54:34.230Z,1036.23
2016-12-17T05:54:59.837Z,1036.18
2016-12-17T05:55:25.406Z,1036.18
2016-12-17T05:55:51.019Z,1036.17
2016-12-17T05:56:16.584Z,1036.18
2016-12-17T05:56:42.150Z,1036.14
2016-12-17T05:57:07.716Z,1036.14
2016-12-17T05:57:33.382Z,1036.18
2016-12-17T05:57:59.008Z,1036.16
2016-12-17T05:58:24.542Z,1036.15
2016-12-17T05:58:50.094Z,1036.19
2016-12-17T05:59:15.664Z,1036.21
2016-12-17T05:59:41.238Z,1036.19
2016-12-17T06:00:06.798Z,1036.19
2016-12-17T06:00:32.354Z,1036.19
2016-12-17T06:00:57.898Z,1036.17
2016-12-17T06:01:23.602Z,1036.14
2016-12-17T06:01:49.189Z,1036.1
2016-12-17T06:02:14.747Z,1036.09
2016-12-17T06:02:40.290Z,1036.05
2016-12-17T06:03:05.841Z,1036.08
2016-12-17T06:03:31.398Z,1036.09
2016-12-17T06:03:56.959Z,1036.09
2016-12-17T06:04:22.525Z,1036.08
2016-12-17T06:04:48.100Z,1036.15
2016-12-17T06:05:13.749Z,1036.18
2016-12-17T06:05:39.325Z,1036.16
2016-12-17T06:06:04.885Z,1036.21
2016-12-17T06:06:30.566Z,1036.13
2016-12-17T06:06:56.171Z,1036.14
2016-12-17T06:07:21.749Z,1036.1
2016-12-17T06:07:47.366Z,1036.13
2016-12-17T06:08:13.181Z,1036.14
2016-12-17T06:08:38.768Z,1036.11
2016-12-17T06:09:04.306Z,1036.16
2016-12-17T06:09:29.842Z,1036.18
2016-12-17T06:09:55.501Z,1036.12
2016-12-17T06:10:21.069Z,1036.12
2016-12-17T06:10:46.626Z,1036.11
2016-12-17T06:11:12.242Z,1036.11
2016-12-17T06:11:37.728Z,1036.05
2016-12-17T06:12:03.278Z,1036.08
2016-12-17T06:12:28.906Z,1036.06
2016-12-17T06:12:54.471Z,1036.11
2016-12-17T06:13:20.037Z,1036.15
2016-12-17T06:13:45.599Z,1036.18
2016-12-17T06:14:11.197Z,1036.16
2016-12-17T06:14:36.776Z,1036.18
2016-12-17T06:15:02.329Z,1036.16
2016-12-17T06:15:27.890Z,1036.18
2016-12-17T06:15:53.506Z,1036.18
2016-12-17T06:16:19.072Z,1036.26
2016-12-17T06:16:44.645Z,1036.24
2016-12-17T06:17:10.324Z,1036.26
2016-12-17T06:17:35.964Z,1036.28
2016-12-17T06:18:01.519Z,1036.26
2016-12-17T06:20:45.644Z,1036.35
2016-12-17T06:21:11.205Z,1036.34
2016-12-17T06:21:36.759Z,1036.34
2016-12-17T06:22:02.308Z,1036.36
2016-12-17T06:22:27.903Z,1036.35
2016-12-17T06:22:53.474Z,1036.3
2016-12-17T06:23:19.029Z,1036.27
2016-12-17T06:23:44.607Z,1036.29
2016-12-17T06:24:10.197Z,1036.27
2016-12-17T06:24:35.840Z,1036.27
2016-12-17T06:25:01.409Z,1036.28
2016-12-17T06:25:26.994Z,1036.29
2016-12-17T06:25:52.564Z,1036.23
2016-12-17T06:26:18.124Z,1036.26
2016-12-17T06:26:43.711Z,1036.29
2016-12-17T06:27:09.256Z,1036.26
2016-12-17T06:27:34.957Z,1036.28
2016-12-17T06:28:00.524Z,1036.31
2016-12-17T06:28:26.086Z,1036.36
2016-12-17T06:28:51.753Z,1036.34
2016-12-17T06:29:17.311Z,1036.33
2016-12-17T06:29:42.883Z,1036.29
2016-12-17T06:30:08.446Z,1036.29
2016-12-17T06:30:34.017Z,1036.28
2016-12-17T06:30:59.594Z,1036.28
2016-12-17T06:31:25.157Z,1036.31
2016-12-17T06:31:50.727Z,1036.31
2016-12-17T06:32:16.394Z,1036.34
2016-12-17T06:32:41.966Z,1036.36
2016-12-17T06:33:07.546Z,1036.35
2016-12-17T06:33:33.129Z,1036.37
2016-12-17T06:33:58.774Z,1036.41
2016-12-17T06:34:24.337Z,1036.39
2016-12-17T06:34:49.892Z,1036.37
2016-12-17T06:35:15.454Z,1036.41
2016-12-17T06:35:41.006Z,1036.38
2016-12-17T06:36:06.578Z,1036.4
2016-12-17T06:36:32.127Z,1036.35
2016-12-17T06:36:57.698Z,1036.37
2016-12-17T06:37:23.259Z,1036.35
2016-12-17T06:37:48.825Z,1036.36
2016-12-17T06:38:14.391Z,1036.33
2016-12-17T06:38:39.940Z,1036.31
2016-12-17T06:39:05.514Z,1036.33
2016-12-17T06:39:31.088Z,1036.28
2016-12-17T06:39:56.717Z,1036.33
2016-12-17T06:40:22.261Z,1036.39
2016-12-17T06:40:47.828Z,1036.42
2016-12-17T06:41:13.377Z,1036.41
2016-12-17T06:41:38.946Z,1036.43
2016-12-17T06:42:04.539Z,1036.45
2016-12-17T06:42:30.128Z,1036.38
2016-12-17T06:42:55.697Z,1036.44
2016-12-17T06:44:09.204Z,1036.44
2016-12-17T06:44:34.782Z,1036.46
2016-12-17T06:45:00.366Z,1036.44
2016-12-17T06:45:25.921Z,1036.45
2016-12-17T06:45:51.524Z,1036.52
2016-12-17T06:46:17.075Z,1036.49
2016-12-17T06:46:42.645Z,1036.53
2016-12-17T06:47:08.207Z,1036.56
2016-12-17T06:47:33.840Z,1036.58
2016-12-17T06:47:59.407Z,1036.56
2016-12-17T06:48:25.096Z,1036.6
2016-12-17T06:48:50.692Z,1036.61
2016-12-17T06:49:16.260Z,1036.59
2016-12-17T06:49:41.867Z,1036.62
2016-12-17T06:50:07.430Z,1036.62
2016-12-17T06:50:33.011Z,1036.62
2016-12-17T06:50:58.568Z,1036.58
2016-12-17T06:51:24.137Z,1036.57
2016-12-17T06:51:49.702Z,1036.58
2016-12-17T06:52:15.265Z,1036.54
2016-12-17T06:52:40.832Z,1036.56
2016-12-17T06:53:06.397Z,1036.52
2016-12-17T06:53:31.963Z,1036.53
2016-12-17T06:53:57.528Z,1036.49
2016-12-17T06:54:23.107Z,1036.5
2016-12-17T06:54:48.686Z,1036.45
2016-12-17T06:55:14.238Z,1036.44
2016-12-17T06:55:39.805Z,1036.45
2016-12-17T06:56:05.357Z,1036.48
2016-12-17T06:56:30.970Z,1036.45
2016-12-17T06:56:56.538Z,1036.49
2016-12-17T06:57:22.113Z,1036.53
2016-12-17T06:57:47.822Z,1036.54
2016-12-17T06:58:13.383Z,1036.53
2016-12-17T06:58:38.944Z,1036.56
2016-12-17T06:59:04.558Z,1036.59
2016-12-17T06:59:30.202Z,1036.6
2016-12-17T06:59:55.760Z,1036.65
2016-12-17T07:00:21.405Z,1036.61
2016-12-17T07:01:40.067Z,1036.62
2016-12-17T07:02:05.632Z,1036.62
2016-12-17T07:02:31.221Z,1036.61
2016-12-17T07:02:56.776Z,1036.63
2016-12-17T07:03:22.320Z,1036.62
2016-12-17T07:03:47.918Z,1036.61
2016-12-17T07:04:13.553Z,1036.61
2016-12-17T07:04:39.250Z,1036.62
2016-12-17T07:05:04.922Z,1036.63
2016-12-17T07:05:30.589Z,1036.63
2016-12-17T07:05:56.144Z,1036.64
2016-12-17T07:06:21.813Z,1036.65
2016-12-17T07:06:47.375Z,1036.61
2016-12-17T07:07:12.948Z,1036.67
2016-12-17T07:07:38.486Z,1036.63
2016-12-17T07:08:04.053Z,1036.64
2016-12-17T07:08:29.627Z,1036.6
2016-12-17T07:08:55.203Z,1036.6
2016-12-17T07:09:20.829Z,1036.65
2016-12-17T07:09:46.378Z,1036.64
2016-12-17T07:10:11.925Z,1036.63
2016-12-17T07:10:37.498Z,1036.64
2016-12-17T07:11:03.106Z,1036.65
2016-12-17T07:11:28.659Z,1036.62
2016-12-17T07:11:54.243Z,1036.61
2016-12-17T07:12:19.818Z,1036.7
2016-12-17T07:12:45.368Z,1036.66
2016-12-17T07:13:10.928Z,1036.69
2016-12-17T07:13:36.635Z,1036.69
2016-12-17T07:14:02.189Z,1036.71
2016-12-17T07:14:27.749Z,1036.72
2016-12-17T07:14:53.315Z,1036.68
2016-12-17T07:15:18.878Z,1036.7
2016-12-17T07:15:44.434Z,1036.7
2016-12-17T07:16:09.999Z,1036.66
2016-12-17T07:16:35.564Z,1036.68
2016-12-17T07:17:01.141Z,1036.68
2016-12-17T07:17:26.716Z,1036.66
2016-12-17T07:17:52.288Z,1036.69
2016-12-17T07:18:17.836Z,1036.71
2016-12-17T07:18:43.413Z,1036.72
2016-12-17T07:19:08.941Z,1036.71
2016-12-17T07:19:34.495Z,1036.69
2016-12-17T07:20:00.058Z,1036.72
2016-12-17T07:20:25.648Z,1036.74
2016-12-17T07:20:51.192Z,1036.73
2016-12-17T07:21:16.887Z,1036.75
2016-12-17T07:21:42.453Z,1036.78
2016-12-17T07:22:08.018Z,1036.75
2016-12-17T07:23:26.573Z,1036.73
2016-12-17T07:23:52.232Z,1036.74
2016-12-17T07:24:17.799Z,1036.72
2016-12-17T07:24:43.353Z,1036.71
2016-12-17T07:25:09.272Z,1036.74
2016-12-17T07:25:34.812Z,1036.72
2016-12-17T07:26:00.374Z,1036.76
2016-12-17T07:26:26.746Z,1036.74
2016-12-17T07:26:52.585Z,1036.75
2016-12-17T07:27:19.715Z,1036.76
2016-12-17T07:27:45.295Z,1036.8
2016-12-17T07:28:10.863Z,1036.77
2016-12-17T07:28:36.426Z,1036.8
2016-12-17T07:29:02.007Z,1036.77
2016-12-17T07:29:27.718Z,1036.75
2016-12-17T07:29:53.278Z,1036.78
2016-12-17T07:30:19.460Z,1036.8
2016-12-17T07:30:45.050Z,1036.79
2016-12-17T07:31:10.625Z,1036.78
2016-12-17T07:31:36.790Z,1036.79
2016-12-17T07:32:02.357Z,1036.75
2016-12-17T07:32:28.562Z,1036.76
2016-12-17T07:32:54.157Z,1036.77
2016-12-17T07:33:19.845Z,1036.78
2016-12-17T07:33:45.929Z,1036.78
2016-12-17T07:34:11.542Z,1036.83
2016-12-17T07:34:37.710Z,1036.83
2016-12-17T07:35:03.343Z,1036.86
2016-12-17T07:35:29.480Z,1036.79
2016-12-17T07:35:55.057Z,1036.81
2016-12-17T07:36:20.882Z,1036.83
2016-12-17T07:36:46.859Z,1036.87
2016-12-17T07:37:12.445Z,1036.82
2016-12-17T07:37:38.735Z,1036.83
2016-12-17T07:38:04.382Z,1036.85
2016-12-17T07:38:29.946Z,1036.83
2016-12-17T07:38:55.974Z,1036.85
2016-12-17T07:39:21.713Z,1036.86
2016-12-17T07:39:47.902Z,1036.91
2016-12-17T07:40:13.460Z,1036.91
2016-12-17T07:40:39.560Z,1036.95
2016-12-17T07:41:05.203Z,1036.98
2016-12-17T07:41:30.814Z,1036.99
2016-12-17T07:41:57.047Z,1036.94
2016-12-17T07:42:22.610Z,1036.98
2016-12-17T07:42:48.907Z,1036.94
2016-12-17T07:43:14.543Z,1036.92
2016-12-17T07:43:40.117Z,1036.97
2016-12-17T07:44:06.281Z,1037
2016-12-17T07:44:31.889Z,1037.02
2016-12-17T07:44:58.007Z,1037.02
2016-12-17T07:45:23.580Z,1037.06
2016-12-17T07:45:49.799Z,1037.05
2016-12-17T07:46:15.383Z,1037.09
2016-12-17T07:46:40.973Z,1037.03
2016-12-17T07:47:07.127Z,1037.04
2016-12-17T07:47:32.702Z,1037.03
2016-12-17T07:47:58.964Z,1037.07
2016-12-17T07:48:24.681Z,1037.08
2016-12-17T07:48:50.305Z,1037.1
2016-12-17T07:49:16.379Z,1037.09
2016-12-17T07:49:41.948Z,1037.09
2016-12-17T07:50:08.114Z,1037.12
2016-12-17T07:50:33.706Z,1037.08
2016-12-17T07:50:59.897Z,1037.08
2016-12-17T07:51:25.454Z,1037.07
2016-12-17T07:51:51.028Z,1037.08
2016-12-17T07:52:17.311Z,1037.08
2016-12-17T07:52:42.875Z,1037.07
2016-12-17T07:53:09.140Z,1037.08
2016-12-17T07:53:34.734Z,1037.12
2016-12-17T07:54:00.344Z,1037.11
2016-12-17T07:54:26.526Z,1037.14
2016-12-17T07:54:52.188Z,1037.16
2016-12-17T07:55:18.260Z,1037.09
2016-12-17T07:55:43.860Z,1037.08
2016-12-17T07:56:10.061Z,1037.11
2016-12-17T07:56:35.619Z,1037.1
2016-12-17T07:57:01.363Z,1037.1
2016-12-17T07:57:27.383Z,1037.15
2016-12-17T07:57:52.957Z,1037.16
2016-12-17T07:58:19.219Z,1037.22
2016-12-17T07:58:44.946Z,1037.23
2016-12-17T07:59:10.558Z,1037.23
2016-12-17T07:59:36.550Z,1037.23
2016-12-17T08:00:02.101Z,1037.24
2016-12-17T08:00:28.348Z,1037.25
2016-12-17T08:00:53.961Z,1037.26
2016-12-17T08:01:20.142Z,1037.26
2016-12-17T08:01:45.697Z,1037.27
2016-12-17T08:02:11.262Z,1037.24
2016-12-17T08:02:37.515Z,1037.25
2016-12-17T08:03:03.067Z,1037.28
2016-12-17T08:03:29.339Z,1037.23
2016-12-17T08:03:54.937Z,1037.21
2016-12-17T08:04:20.531Z,1037.18
2016-12-17T08:04:46.667Z,1037.23
2016-12-17T08:05:12.318Z,1037.19
2016-12-17T08:05:38.479Z,1037.23
2016-12-17T08:06:04.113Z,1037.23
2016-12-17T08:06:30.265Z,1037.2
2016-12-17T08:06:55.846Z,1037.22
2016-12-17T08:07:21.411Z,1037.2
2016-12-17T08:07:47.681Z,1037.24
2016-12-17T08:08:13.348Z,1037.2
2016-12-17T08:08:39.466Z,1037.16
2016-12-17T08:09:05.040Z,1037.18
2016-12-17T08:09:30.710Z,1037.18
2016-12-17T08:09:56.814Z,1037.18
2016-12-17T08:10:22.398Z,1037.17
2016-12-17T08:10:48.679Z,1037.18
2016-12-17T08:11:14.253Z,1037.13
2016-12-17T08:11:40.467Z,1037.12
2016-12-17T08:12:06.021Z,1037.1
2016-12-17T08:12:31.584Z,1037.15
2016-12-17T08:12:57.782Z,1037.11
2016-12-17T08:13:23.360Z,1037.12
2016-12-17T08:13:49.598Z,1037.11
2016-12-17T08:14:15.188Z,1037.14
2016-12-17T08:14:40.745Z,1037.12
2016-12-17T08:15:06.920Z,1037.08
2016-12-17T08:15:32.491Z,1037.08
2016-12-17T08:15:58.825Z,1037.18
2016-12-17T08:16:24.398Z,1037.13
2016-12-17T08:16:50.536Z,1037.12
2016-12-17T08:17:16.107Z,1037.11
2016-12-17T08:17:41.681Z,1037.13
2016-12-17T08:18:07.875Z,1037.14
2016-12-17T08:18:33.464Z,1037.12
2016-12-17T08:18:59.691Z,1037.17
2016-12-17T08:19:25.350Z,1037.15
2016-12-17T08:19:50.911Z,1037.11
2016-12-17T08:20:17.104Z,1037.14
2016-12-17T08:20:42.649Z,1037.13
2016-12-17T08:21:08.835Z,1037.12
2016-12-17T08:21:34.392Z,1037.14
2016-12-17T08:22:00.614Z,1037.13
2016-12-17T08:22:26.168Z,1037.13
2016-12-17T08:22:51.737Z,1037.14
2016-12-17T08:23:17.958Z,1037.14
2016-12-17T08:23:43.512Z,1037.11
2016-12-17T08:24:09.747Z,1037.11
2016-12-17T08:24:35.411Z,1037.13
2016-12-17T08:25:01.088Z,1037.09
2016-12-17T08:25:27.385Z,1037.12
2016-12-17T08:25:52.945Z,1037.11
2016-12-17T08:26:18.894Z,1037.12
2016-12-17T08:26:44.448Z,1037.09
2016-12-17T08:27:10.691Z,1037.12
2016-12-17T08:27:36.251Z,1037.1
2016-12-17T08:28:01.827Z,1037.08
2016-12-17T08:28:28.040Z,1037.06
2016-12-17T08:28:53.617Z,1037.11
2016-12-17T08:29:19.849Z,1037.07
2016-12-17T08:29:45.416Z,1037.1
2016-12-17T08:30:11.057Z,1037.12
2016-12-17T08:30:37.237Z,1037.13
2016-12-17T08:31:02.908Z,1037.07
2016-12-17T08:31:28.977Z,1037.15
2016-12-17T08:31:54.638Z,1037.15
2016-12-17T08:32:20.760Z,1037.18
2016-12-17T08:32:46.320Z,1037.12
2016-12-17T08:33:11.894Z,1037.12
2016-12-17T08:33:38.185Z,1037.13
2016-12-17T08:34:03.739Z,1037.19
2016-12-17T08:34:29.918Z,1037.2
2016-12-17T08:34:55.475Z,1037.19
2016-12-17T08:35:21.056Z,1037.16
2016-12-17T08:35:47.264Z,1037.19
2016-12-17T08:36:12.863Z,1037.16
2016-12-17T08:36:39.128Z,1037.2
2016-12-17T08:37:05.113Z,1037.17
2016-12-17T08:37:30.960Z,1037.12
2016-12-17T08:37:56.558Z,1037.12
2016-12-17T08:38:22.350Z,1037.1
2016-12-17T08:38:48.644Z,1037.12
2016-12-17T08:39:14.216Z,1037.12
2016-12-17T08:39:41.283Z,1037.14
2016-12-17T08:40:06.116Z,1037.17
2016-12-17T08:40:32.551Z,1037.15
2016-12-17T08:41:12.047Z,1037.16
2016-12-17T08:42:24.145Z,1037.13
2016-12-17T08:42:49.771Z,1037.16
2016-12-17T08:44:03.208Z,1037.13
2016-12-17T08:44:28.792Z,1037.12
2016-12-17T08:44:54.352Z,1037.1
2016-12-17T08:45:19.915Z,1037.1
2016-12-17T08:45:45.482Z,1037.12
2016-12-17T08:46:11.034Z,1037.09
2016-12-17T08:46:36.592Z,1037.1
2016-12-17T08:47:02.155Z,1037.07
2016-12-17T08:47:27.735Z,1037.09
2016-12-17T08:47:53.303Z,1037.07
2016-12-17T08:48:18.872Z,1037.07
2016-12-17T08:48:44.528Z,1037.03
2016-12-17T08:49:10.109Z,1037.09
2016-12-17T08:50:14.325Z,1037.09
2016-12-17T08:50:39.894Z,1037.11
2016-12-17T08:51:05.456Z,1037.13
2016-12-17T08:51:31.023Z,1037.14
2016-12-17T08:51:56.662Z,1037.14
2016-12-17T08:52:22.243Z,1037.13
2016-12-17T08:52:47.787Z,1037.17
2016-12-17T08:53:43.397Z,1037.2
2016-12-17T08:54:09.024Z,1037.13
2016-12-17T08:54:35.401Z,1037.17
2016-12-17T08:55:07.456Z,1037.17
2016-12-17T08:55:37.696Z,1037.18
2016-12-17T08:56:03.349Z,1037.15
2016-12-17T08:56:28.891Z,1037.19
2016-12-17T08:56:54.554Z,1037.13
2016-12-17T08:57:20.090Z,1037.2
2016-12-17T08:57:45.648Z,1037.15
2016-12-17T08:58:11.314Z,1037.17
2016-12-17T08:58:36.894Z,1037.2
2016-12-17T08:59:02.439Z,1037.18
2016-12-17T08:59:28.085Z,1037.22
2016-12-17T08:59:53.675Z,1037.18
2016-12-17T09:00:19.253Z,1037.25
2016-12-17T09:00:44.817Z,1037.2
2016-12-17T09:01:10.385Z,1037.19
2016-12-17T09:01:35.967Z,1037.16
2016-12-17T09:02:01.515Z,1037.17
2016-12-17T09:02:27.051Z,1037.14
2016-12-17T09:02:52.602Z,1037.19
2016-12-17T09:03:18.175Z,1037.18
2016-12-17T09:03:43.725Z,1037.18
2016-12-17T09:04:09.910Z,1037.16
2016-12-17T09:04:35.473Z,1037.13
2016-12-17T09:05:01.040Z,1037.08
2016-12-17T09:05:26.593Z,1037.11
2016-12-17T09:05:52.259Z,1037.05
2016-12-17T09:06:17.800Z,1037.04
2016-12-17T09:06:43.353Z,1037.04
2016-12-17T09:07:08.941Z,1037.11
2016-12-17T09:07:34.515Z,1037.07
2016-12-17T09:08:00.193Z,1037.06
2016-12-17T09:08:25.970Z,1037.08
2016-12-17T09:08:51.671Z,1037.07
2016-12-17T09:09:17.272Z,1037.09
2016-12-17T09:09:42.863Z,1037.06
2016-12-17T09:10:08.613Z,1037.03
2016-12-17T09:10:34.248Z,1037.03
2016-12-17T09:10:59.883Z,1037.03
2016-12-17T09:11:25.515Z,1037.07
2016-12-17T09:11:51.154Z,1037.02
2016-12-17T09:12:16.763Z,1037.06
2016-12-17T09:12:42.381Z,1037.08
2016-12-17T09:13:07.994Z,1037.09
2016-12-17T09:13:33.560Z,1037.11
2016-12-17T09:13:59.153Z,1037.11
2016-12-17T09:14:24.735Z,1037.05
2016-12-17T09:14:50.354Z,1037.07
2016-12-17T09:15:15.983Z,1037.07
2016-12-17T09:15:41.562Z,1037.1
2016-12-17T09:16:07.117Z,1037.08
2016-12-17T09:16:32.800Z,1037.06
2016-12-17T09:16:58.358Z,1037.05
2016-12-17T09:17:23.956Z,1037.03
2016-12-17T09:17:49.603Z,1037.09
2016-12-17T09:18:15.298Z,1037.07
2016-12-17T09:18:40.903Z,1037.02
2016-12-17T09:19:06.509Z,1037.04
2016-12-17T09:19:32.115Z,1037.08
2016-12-17T09:19:57.826Z,1037.12
2016-12-17T09:20:23.418Z,1037.11
2016-12-17T09:20:48.989Z,1037.11
2016-12-17T09:21:14.682Z,1037.12
2016-12-17T09:21:40.293Z,1037.12
2016-12-17T09:22:05.853Z,1037.18
2016-12-17T09:22:31.456Z,1037.14
2016-12-17T09:22:57.012Z,1037.16
2016-12-17T09:23:22.613Z,1037.18
2016-12-17T09:23:48.215Z,1037.16
2016-12-17T09:24:13.775Z,1037.25
2016-12-17T09:24:39.357Z,1037.22
2016-12-17T09:25:04.915Z,1037.24
2016-12-17T09:25:30.487Z,1037.27
2016-12-17T09:25:56.029Z,1037.27
2016-12-17T09:26:21.595Z,1037.29
2016-12-17T09:26:47.198Z,1037.29
2016-12-17T09:27:12.770Z,1037.3
2016-12-17T09:27:38.381Z,1037.26
2016-12-17T09:28:03.955Z,1037.28
2016-12-17T09:28:29.501Z,1037.3
2016-12-17T09:28:55.056Z,1037.31
2016-12-17T09:29:20.679Z,1037.31
2016-12-17T09:29:46.248Z,1037.31
2016-12-17T09:30:11.808Z,1037.28
2016-12-17T09:30:37.378Z,1037.24
2016-12-17T09:31:02.951Z,1037.26
2016-12-17T09:31:28.525Z,1037.26
2016-12-17T09:31:54.141Z,1037.21
2016-12-17T09:32:19.683Z,1037.22
2016-12-17T09:32:45.360Z,1037.19
2016-12-17T09:33:10.933Z,1037.21
2016-12-17T09:33:36.480Z,1037.23
2016-12-17T09:34:02.031Z,1037.24
2016-12-17T09:34:27.755Z,1037.26
2016-12-17T09:34:53.317Z,1037.28
2016-12-17T09:35:18.871Z,1037.26
2016-12-17T09:35:44.550Z,1037.33
2016-12-17T09:36:10.183Z,1037.35
2016-12-17T09:36:35.764Z,1037.3
2016-12-17T09:37:01.341Z,1037.29
2016-12-17T09:37:26.893Z,1037.27
2016-12-17T09:37:52.445Z,1037.26
2016-12-17T09:38:18.005Z,1037.2
2016-12-17T09:38:43.547Z,1037.19
2016-12-17T09:39:09.085Z,1037.17
2016-12-17T09:39:34.740Z,1037.15
2016-12-17T09:40:00.469Z,1037.14
2016-12-17T09:40:26.035Z,1037.14
2016-12-17T09:40:51.613Z,1037.14
2016-12-17T09:41:17.168Z,1037.14
2016-12-17T09:41:42.709Z,1037.18
2016-12-17T09:42:08.283Z,1037.19
2016-12-17T09:42:33.892Z,1037.25
2016-12-17T09:42:59.451Z,1037.26
2016-12-17T09:43:25.101Z,1037.25
2016-12-17T09:43:50.755Z,1037.25
2016-12-17T09:44:16.301Z,1037.29
2016-12-17T09:44:41.829Z,1037.31
2016-12-17T09:45:07.589Z,1037.28
2016-12-17T09:45:33.146Z,1037.25
2016-12-17T09:45:58.706Z,1037.23
2016-12-17T09:46:24.301Z,1037.21
2016-12-17T09:46:49.973Z,1037.24
2016-12-17T09:47:15.519Z,1037.24
2016-12-17T09:47:41.061Z,1037.19
2016-12-17T09:48:06.619Z,1037.22
2016-12-17T09:48:32.164Z,1037.21
2016-12-17T09:48:57.744Z,1037.21
2016-12-17T09:49:23.272Z,1037.19
2016-12-17T09:49:48.864Z,1037.2
2016-12-17T09:50:14.421Z,1037.19
2016-12-17T09:50:39.983Z,1037.2
2016-12-17T09:51:05.539Z,1037.2
2016-12-17T09:51:31.087Z,1037.22
2016-12-17T09:51:56.632Z,1037.22
2016-12-17T09:52:22.195Z,1037.21
2016-12-17T09:52:47.856Z,1037.19
2016-12-17T09:53:13.404Z,1037.2
2016-12-17T09:53:38.961Z,1037.17
2016-12-17T09:54:04.511Z,1037.18
2016-12-17T09:54:30.275Z,1037.18
2016-12-17T09:54:55.804Z,1037.16
2016-12-17T09:55:21.358Z,1037.16
2016-12-17T09:55:46.934Z,1037.17
2016-12-17T09:56:12.484Z,1037.21
2016-12-17T09:56:38.069Z,1037.26
2016-12-17T09:57:03.637Z,1037.28
2016-12-17T09:57:29.183Z,1037.26
2016-12-17T09:57:54.816Z,1037.28
2016-12-17T09:58:20.362Z,1037.21
2016-12-17T09:58:45.893Z,1037.21
2016-12-17T09:59:11.454Z,1037.23
2016-12-17T09:59:37.035Z,1037.18
2016-12-17T10:00:02.682Z,1037.25
2016-12-17T10:00:28.273Z,1037.31
2016-12-17T10:00:53.823Z,1037.34
2016-12-17T10:01:19.396Z,1037.34
2016-12-17T10:01:44.960Z,1037.4
2016-12-17T10:02:10.520Z,1037.43
2016-12-17T10:02:36.319Z,1037.43
2016-12-17T10:03:01.924Z,1037.42
2016-12-17T10:03:27.473Z,1037.39
2016-12-17T10:03:53.069Z,1037.39
2016-12-17T10:04:18.695Z,1037.4
2016-12-17T10:04:44.280Z,1037.45
2016-12-17T10:05:09.823Z,1037.52
2016-12-17T10:05:35.375Z,1037.51
2016-12-17T10:06:00.934Z,1037.56
2016-12-17T10:06:26.503Z,1037.55
2016-12-17T10:06:52.081Z,1037.53
2016-12-17T10:07:17.636Z,1037.51
2016-12-17T10:07:43.212Z,1037.47
2016-12-17T10:08:08.826Z,1037.46
2016-12-17T10:08:34.425Z,1037.42
2016-12-17T10:09:00.009Z,1037.4
2016-12-17T10:09:25.593Z,1037.4
2016-12-17T10:09:51.159Z,1037.37
2016-12-17T10:10:16.738Z,1037.38
2016-12-17T10:10:42.418Z,1037.4
2016-12-17T10:11:07.996Z,1037.4
2016-12-17T10:11:33.559Z,1037.4
2016-12-17T10:11:59.160Z,1037.37
2016-12-17T10:12:39.519Z,1037.47
2016-12-17T10:13:05.114Z,1037.5
2016-12-17T10:13:30.716Z,1037.6
2016-12-17T10:13:56.273Z,1037.69
2016-12-17T10:14:21.853Z,1037.65
2016-12-17T10:14:47.481Z,1037.58
2016-12-17T10:15:13.073Z,1037.55
2016-12-17T10:15:38.631Z,1037.47
2016-12-17T10:16:04.190Z,1037.41
2016-12-17T10:16:29.989Z,1037.42
2016-12-17T10:16:55.548Z,1037.39
2016-12-17T10:17:21.206Z,1037.47
2016-12-17T10:17:46.777Z,1037.5
2016-12-17T10:18:12.346Z,1037.54
2016-12-17T10:18:37.903Z,1037.53